Time;durP1;ratioP1;P1;durP2;ratioP2;P2;SDS_P1;SDS_P2;PMS_P1;PMS_P2;Temp;Humidity;BMP_temperature;BMP_pressure;BME280_temperature;BME280_humidity;BME280_pressure;Samples;Min_cycle;Max_cycle;Signal;HPM_P1;HPM_P2
2023/10/28 00:00:55;;;;;;;1.17;0.65;;;10.50;99.90;;;;;;5046590;28;20087;-94
2023/10/28 00:03:21;;;;;;;1.35;1.25;;;10.50;99.90;;;;;;5030510;28;20076;-92
2023/10/28 00:05:47;;;;;;;1.02;0.68;;;10.50;99.90;;;;;;5039799;28;20014;-92
2023/10/28 00:08:13;;;;;;;2.30;0.73;;;10.40;99.90;;;;;;5026428;28;20021;-93
2023/10/28 00:10:41;;;;;;;1.10;0.70;;;10.40;99.90;;;;;;5019257;28;20037;-93
2023/10/28 00:13:08;;;;;;;1.08;0.88;;;10.40;99.90;;;;;;5041974;28;20053;-94
2023/10/28 00:15:35;;;;;;;;;;;10.40;99.90;;;;;;5030831;28;20163;-92
2023/10/28 00:18:00;;;;;;;1.23;0.63;;;10.40;99.90;;;;;;5031315;28;19905;-93
2023/10/28 00:20:29;;;;;;;1.58;0.60;;;10.40;99.90;;;;;;5040505;28;20060;-94
2023/10/28 00:22:55;;;;;;;3.25;1.48;;;10.40;99.90;;;;;;5058589;28;20026;-91
2023/10/28 00:25:28;;;;;;;2.03;0.85;;;10.40;99.90;;;;;;5041566;28;20040;-94
2023/10/28 00:27:55;;;;;;;1.25;0.80;;;10.40;99.90;;;;;;5036074;28;20109;-93
2023/10/28 00:30:22;;;;;;;1.98;1.20;;;10.40;99.90;;;;;;5041155;28;20048;-93
2023/10/28 00:32:49;;;;;;;2.22;0.98;;;10.40;99.90;;;;;;5037109;28;20026;-95
2023/10/28 00:35:15;;;;;;;1.45;0.98;;;10.40;99.90;;;;;;5022550;28;20090;-95
2023/10/28 00:37:44;;;;;;;1.80;0.70;;;10.40;99.90;;;;;;5043072;28;20626;-92
2023/10/28 00:40:10;;;;;;;1.50;1.00;;;10.40;99.90;;;;;;5050200;28;20694;-93
2023/10/28 00:42:38;;;;;;;1.17;0.98;;;10.40;99.90;;;;;;5039866;28;20107;-95
2023/10/28 00:45:08;;;;;;;4.70;1.02;;;10.30;99.90;;;;;;5042764;28;20014;-93
2023/10/28 00:47:38;;;;;;;1.63;0.60;;;10.30;99.90;;;;;;5040987;28;20445;-94
2023/10/28 00:50:11;;;;;;;2.35;0.98;;;10.30;99.90;;;;;;5041095;28;20071;-93
2023/10/28 00:52:39;;;;;;;2.05;1.00;;;10.30;99.90;;;;;;5041600;28;20793;-93
2023/10/28 00:55:09;;;;;;;3.05;1.25;;;10.30;99.90;;;;;;5036176;28;20140;-93
2023/10/28 00:57:35;;;;;;;2.22;0.60;;;10.30;99.90;;;;;;5042578;28;20037;-94
2023/10/28 01:00:02;;;;;;;1.55;0.93;;;10.30;99.90;;;;;;5035124;28;20043;-90
2023/10/28 01:02:27;;;;;;;1.40;0.93;;;10.20;99.90;;;;;;5036622;28;20484;-91
2023/10/28 01:04:54;;;;;;;9.05;1.58;;;10.20;99.90;;;;;;5041638;28;20032;-93
2023/10/28 01:07:20;;;;;;;2.50;1.10;;;10.20;99.90;;;;;;5042025;28;20028;-94
2023/10/28 01:09:47;;;;;;;1.75;0.77;;;10.10;99.90;;;;;;5042089;28;20026;-92
2023/10/28 01:12:16;;;;;;;1.42;0.82;;;10.20;99.90;;;;;;5042581;28;20041;-92
2023/10/28 01:14:42;;;;;;;1.13;1.02;;;10.20;99.90;;;;;;5035009;28;20093;-94
2023/10/28 01:17:13;;;;;;;1.15;1.05;;;10.10;99.90;;;;;;5041606;28;20068;-93
2023/10/28 01:19:39;;;;;;;1.55;1.02;;;10.20;99.90;;;;;;5023997;28;20431;-94
2023/10/28 01:22:05;;;;;;;2.40;1.00;;;10.10;99.90;;;;;;5022682;28;20361;-94
2023/10/28 01:24:32;;;;;;;2.03;1.33;;;10.10;99.90;;;;;;5023501;28;20049;-94
2023/10/28 01:27:01;;;;;;;2.17;0.90;;;10.20;99.90;;;;;;5041414;28;20041;-92
2023/10/28 01:29:28;;;;;;;1.63;0.82;;;10.20;99.90;;;;;;5041869;28;20033;-93
2023/10/28 01:31:55;;;;;;;2.05;1.15;;;10.20;99.90;;;;;;5043717;28;20017;-91
2023/10/28 01:34:22;;;;;;;1.98;0.73;;;10.20;99.90;;;;;;5033474;28;20373;-94
2023/10/28 01:36:48;;;;;;;1.33;0.82;;;10.20;99.90;;;;;;5035321;28;20029;-93
2023/10/28 01:39:15;;;;;;;1.77;0.85;;;10.20;99.90;;;;;;5033925;28;20168;-92
2023/10/28 01:41:41;;;;;;;2.53;1.02;;;10.20;99.90;;;;;;5058322;28;20028;-92
2023/10/28 01:44:07;;;;;;;3.60;1.13;;;10.20;99.90;;;;;;5041177;28;20174;-92
2023/10/28 01:46:33;;;;;;;2.15;0.93;;;10.20;99.90;;;;;;5039387;28;20022;-93
2023/10/28 01:48:58;;;;;;;2.50;1.35;;;10.20;99.90;;;;;;5035653;28;20026;-94
2023/10/28 01:51:24;;;;;;;1.75;0.93;;;10.20;99.90;;;;;;5057672;28;20065;-94
2023/10/28 01:53:49;;;;;;;2.42;1.20;;;10.20;99.90;;;;;;5025527;28;20503;-95
2023/10/28 01:56:15;;;;;;;3.47;0.90;;;10.10;99.90;;;;;;5039010;28;20021;-93
2023/10/28 01:58:41;;;;;;;1.80;1.00;;;10.10;99.90;;;;;;5032787;28;20060;-94
2023/10/28 02:01:07;;;;;;;3.58;0.88;;;10.10;99.90;;;;;;5032942;28;20104;-92
2023/10/28 02:03:32;;;;;;;2.97;1.10;;;10.10;99.90;;;;;;5036270;28;20112;-95
2023/10/28 02:05:58;;;;;;;3.17;1.30;;;10.10;99.90;;;;;;5041280;28;20476;-92
2023/10/28 02:08:24;;;;;;;4.68;0.80;;;10.00;99.90;;;;;;5041254;28;20084;-92
2023/10/28 02:10:49;;;;;;;1.20;0.77;;;10.10;99.90;;;;;;5058025;28;20032;-91
2023/10/28 02:13:15;;;;;;;2.38;0.80;;;10.10;99.90;;;;;;5042117;28;20553;-93
2023/10/28 02:15:42;;;;;;;2.15;1.20;;;10.10;99.90;;;;;;5041034;28;20022;-93
2023/10/28 02:18:09;;;;;;;5.70;0.85;;;10.10;99.90;;;;;;5040477;28;20022;-92
2023/10/28 02:20:36;;;;;;;1.33;0.75;;;10.10;99.90;;;;;;5052586;28;20046;-93
2023/10/28 02:23:02;;;;;;;2.45;1.13;;;10.10;99.90;;;;;;5036146;28;20014;-95
2023/10/28 02:25:27;;;;;;;3.17;1.10;;;10.10;99.90;;;;;;5039939;28;20071;-92
2023/10/28 02:27:53;;;;;;;2.58;1.15;;;10.20;99.90;;;;;;5039797;28;20017;-93
2023/10/28 02:30:19;;;;;;;4.15;1.17;;;10.20;99.90;;;;;;5039628;28;20025;-94
2023/10/28 02:32:44;;;;;;;5.43;1.25;;;10.20;99.90;;;;;;5055653;28;20021;-93
2023/10/28 02:35:10;;;;;;;1.35;1.10;;;10.20;99.90;;;;;;5032829;28;20554;-94
2023/10/28 02:37:36;;;;;;;3.30;1.55;;;10.20;99.90;;;;;;5031931;28;20029;-91
2023/10/28 02:40:03;;;;;;;3.42;1.25;;;10.30;99.90;;;;;;5041884;28;20110;-93
2023/10/28 02:42:29;;;;;;;2.75;1.67;;;10.30;99.90;;;;;;5041383;28;20026;-94
2023/10/28 02:44:55;;;;;;;3.15;1.10;;;10.40;99.90;;;;;;5032991;28;20017;-93
2023/10/28 02:47:20;;;;;;;2.90;1.20;;;10.40;99.90;;;;;;5032670;28;20047;-93
2023/10/28 02:49:46;;;;;;;2.22;1.17;;;10.40;99.90;;;;;;5055594;28;20025;-94
2023/10/28 02:52:12;;;;;;;8.55;1.27;;;10.40;99.90;;;;;;5040766;28;20021;-93
2023/10/28 02:54:38;;;;;;;2.53;1.45;;;10.40;99.90;;;;;;5034954;28;20048;-93
2023/10/28 02:57:04;;;;;;;1.98;1.83;;;10.50;99.90;;;;;;5040183;28;20029;-94
2023/10/28 02:59:29;;;;;;;7.63;1.23;;;10.50;99.90;;;;;;5055229;28;20048;-94
2023/10/28 03:01:55;;;;;;;2.80;1.10;;;10.50;99.90;;;;;;5040764;28;20028;-94
2023/10/28 03:04:21;;;;;;;5.10;1.02;;;10.50;99.90;;;;;;5041471;28;20018;-94
2023/10/28 03:06:47;;;;;;;3.15;1.00;;;10.50;99.90;;;;;;5027905;28;20026;-94
2023/10/28 03:09:13;;;;;;;3.25;1.08;;;10.50;99.90;;;;;;5036297;28;20025;-93
2023/10/28 03:11:38;;;;;;;3.15;0.82;;;10.50;99.90;;;;;;5032615;28;20022;-94
2023/10/28 03:14:07;;;;;;;1.98;1.52;;;10.60;99.90;;;;;;5040257;28;20033;-94
2023/10/28 03:16:33;;;;;;;5.82;1.98;;;10.60;99.90;;;;;;5038990;28;20088;-93
2023/10/28 03:18:58;;;;;;;3.00;1.23;;;10.70;99.90;;;;;;5039835;28;20388;-93
2023/10/28 03:21:24;;;;;;;5.55;1.15;;;10.70;99.90;;;;;;5053746;28;20451;-94
2023/10/28 03:23:50;;;;;;;2.08;1.17;;;10.80;99.90;;;;;;5039260;28;20072;-92
2023/10/28 03:26:16;;;;;;;2.30;0.75;;;10.80;99.90;;;;;;5044602;28;20300;-94
2023/10/28 03:28:42;;;;;;;4.07;1.45;;;10.80;99.90;;;;;;5050190;28;20091;-94
2023/10/28 03:31:12;;;;;;;5.72;1.48;;;10.80;99.90;;;;;;5053337;28;20047;-92
2023/10/28 03:33:41;;;;;;;4.25;1.15;;;10.80;99.90;;;;;;5048487;28;20009;-92
2023/10/28 03:36:10;;;;;;;7.03;2.00;;;10.80;99.90;;;;;;5067849;28;20033;-94
2023/10/28 03:38:36;;;;;;;6.32;1.40;;;10.70;99.90;;;;;;5041234;28;20087;-93
2023/10/28 03:41:09;;;;;;;4.10;1.45;;;10.70;99.90;;;;;;5055672;28;20029;-94
2023/10/28 03:43:35;;;;;;;3.92;1.17;;;10.70;99.90;;;;;;5051587;28;20025;-94
2023/10/28 03:46:01;;;;;;;4.97;1.60;;;10.70;99.90;;;;;;5027391;28;20032;-93
2023/10/28 03:48:27;;;;;;;3.97;1.38;;;10.70;99.90;;;;;;5039063;28;20052;-95
2023/10/28 03:51:03;;;;;;;4.75;2.17;;;10.60;99.90;;;;;;5039599;28;20594;-94
2023/10/28 03:53:29;;;;;;;5.50;2.60;;;10.60;99.90;;;;;;5038928;28;20028;-94
2023/10/28 03:55:55;;;;;;;5.00;1.33;;;10.70;99.90;;;;;;5060234;28;20029;-93
2023/10/28 03:58:20;;;;;;;3.15;1.27;;;10.70;99.90;;;;;;5055312;28;20029;-94
2023/10/28 04:00:55;;;;;;;4.15;1.02;;;10.70;99.90;;;;;;5040417;28;20021;-94
2023/10/28 04:03:24;;;;;;;2.30;1.88;;;10.70;99.90;;;;;;5039642;28;20018;-93
2023/10/28 04:05:50;;;;;;;4.35;1.60;;;10.60;99.90;;;;;;5039494;28;20174;-92
2023/10/28 04:08:16;;;;;;;7.53;1.92;;;10.70;99.90;;;;;;5038514;28;20029;-93
2023/10/28 04:10:42;;;;;;;4.72;1.23;;;10.70;99.90;;;;;;5042815;28;20022;-94
2023/10/28 04:13:08;;;;;;;2.75;0.93;;;10.70;99.90;;;;;;5027484;28;20033;-94
2023/10/28 04:15:35;;;;;;;3.28;0.90;;;10.70;99.90;;;;;;5042242;28;20212;-93
2023/10/28 04:18:01;;;;;;;4.35;1.35;;;10.70;99.90;;;;;;5031725;28;20025;-93
2023/10/28 04:20:27;;;;;;;3.45;0.98;;;10.70;99.90;;;;;;5028043;28;20036;-93
2023/10/28 04:22:53;;;;;;;7.43;1.30;;;10.70;99.90;;;;;;5038567;28;20025;-94
2023/10/28 04:25:19;;;;;;;3.40;1.27;;;10.70;99.90;;;;;;5053015;28;20076;-93
2023/10/28 04:27:44;;;;;;;4.53;1.75;;;10.80;99.90;;;;;;5025189;28;20030;-92
2023/10/28 04:30:13;;;;;;;2.55;1.05;;;10.80;99.90;;;;;;5027197;28;20025;-93
2023/10/28 04:32:39;;;;;;;4.10;1.13;;;10.80;99.90;;;;;;5038213;28;20060;-95
2023/10/28 04:35:05;;;;;;;3.85;0.70;;;10.80;99.90;;;;;;5024145;28;20029;-93
2023/10/28 04:37:31;;;;;;;2.67;1.08;;;10.80;99.90;;;;;;5044323;28;20037;-95
2023/10/28 04:39:57;;;;;;;4.15;2.00;;;10.80;99.90;;;;;;5053464;28;20030;-94
2023/10/28 04:42:22;;;;;;;4.05;1.17;;;10.80;99.90;;;;;;5031740;28;20029;-93
2023/10/28 04:44:48;;;;;;;2.25;1.00;;;10.80;99.90;;;;;;5031494;28;20397;-94
2023/10/28 04:47:14;;;;;;;5.18;1.17;;;10.80;99.90;;;;;;5039956;28;20031;-94
2023/10/28 04:49:41;;;;;;;3.20;1.23;;;10.80;99.90;;;;;;5040829;28;20025;-93
2023/10/28 04:52:08;;;;;;;2.55;0.93;;;10.80;99.90;;;;;;5043300;28;20021;-93
2023/10/28 04:54:34;;;;;;;5.55;1.70;;;10.80;99.90;;;;;;5029635;28;20045;-94
2023/10/28 04:57:02;;;;;;;2.67;1.20;;;10.80;99.90;;;;;;5027981;28;20025;-93
2023/10/28 04:59:29;;;;;;;2.60;1.05;;;10.90;99.90;;;;;;5046793;28;20022;-94
2023/10/28 05:01:55;;;;;;;3.25;1.00;;;10.90;99.90;;;;;;5049294;28;20034;-94
2023/10/28 05:04:23;;;;;;;1.65;1.17;;;10.90;99.90;;;;;;5029418;28;20038;-92
2023/10/28 05:06:49;;;;;;;1.52;0.88;;;10.90;99.90;;;;;;5057383;28;20021;-92
2023/10/28 05:09:15;;;;;;;2.78;1.27;;;10.90;99.90;;;;;;5027813;28;20503;-95
2023/10/28 05:11:42;;;;;;;6.80;1.05;;;10.90;99.90;;;;;;5039337;28;20034;-94
2023/10/28 05:14:10;;;;;;;3.33;0.90;;;10.90;99.90;;;;;;5043047;28;20032;-94
2023/10/28 05:16:36;;;;;;;1.40;0.45;;;10.90;99.90;;;;;;5056724;28;20026;-93
2023/10/28 05:19:02;;;;;;;1.85;0.90;;;10.90;99.90;;;;;;5042680;28;20077;-93
2023/10/28 05:21:28;;;;;;;2.83;1.17;;;10.90;99.90;;;;;;5042721;28;20021;-92
2023/10/28 05:23:54;;;;;;;2.53;0.85;;;10.90;99.90;;;;;;5035859;28;20028;-94
2023/10/28 05:26:19;;;;;;;2.90;0.85;;;10.80;99.90;;;;;;5035474;28;20080;-93
2023/10/28 05:28:46;;;;;;;2.00;1.48;;;10.90;99.90;;;;;;5043312;28;20029;-94
2023/10/28 05:31:14;;;;;;;2.55;1.02;;;11.00;99.90;;;;;;5042414;28;20029;-93
2023/10/28 05:33:39;;;;;;;2.50;1.23;;;11.00;99.90;;;;;;5030479;28;20113;-94
2023/10/28 05:36:06;;;;;;;1.80;1.05;;;10.90;99.90;;;;;;5053320;28;20792;-93
2023/10/28 05:38:31;;;;;;;2.80;0.70;;;11.00;99.90;;;;;;5041115;28;20074;-94
2023/10/28 05:40:57;;;;;;;1.60;0.65;;;11.00;99.90;;;;;;5058417;28;20097;-95
2023/10/28 05:43:23;;;;;;;3.40;0.80;;;11.00;99.90;;;;;;5035869;28;20026;-93
2023/10/28 05:45:48;;;;;;;2.92;0.93;;;11.00;99.90;;;;;;5030157;28;20511;-94
2023/10/28 05:48:14;;;;;;;2.00;1.02;;;11.00;99.90;;;;;;5038262;28;20025;-92
2023/10/28 05:50:39;;;;;;;3.08;1.42;;;11.10;99.90;;;;;;5042271;28;20102;-92
2023/10/28 05:53:05;;;;;;;2.67;1.08;;;11.00;99.90;;;;;;5041836;28;20040;-93
2023/10/28 05:55:31;;;;;;;0.88;0.70;;;11.00;99.90;;;;;;5042678;28;20041;-94
2023/10/28 05:57:57;;;;;;;1.52;1.08;;;11.00;99.90;;;;;;5057053;28;20561;-93
2023/10/28 06:00:23;;;;;;;3.63;1.13;;;11.00;99.90;;;;;;5048666;28;20038;-93
2023/10/28 06:02:49;;;;;;;2.28;1.45;;;11.00;99.90;;;;;;5036436;28;20022;-93
2023/10/28 06:05:15;;;;;;;4.65;1.17;;;11.10;99.90;;;;;;5043136;28;20060;-94
2023/10/28 06:07:47;;;;;;;1.88;0.80;;;11.10;99.90;;;;;;5032931;28;20021;-93
2023/10/28 06:10:13;;;;;;;1.83;1.00;;;11.10;99.90;;;;;;5056979;28;20025;-93
2023/10/28 06:12:39;;;;;;;1.52;0.80;;;11.10;99.90;;;;;;5041663;28;20032;-93
2023/10/28 06:15:05;;;;;;;2.75;1.20;;;11.10;99.80;;;;;;5032757;28;20029;-92
2023/10/28 06:17:31;;;;;;;1.48;1.38;;;11.10;99.40;;;;;;5054505;28;20221;-94
2023/10/28 06:19:56;;;;;;;3.30;1.38;;;11.10;99.80;;;;;;5044269;28;20014;-93
2023/10/28 06:22:22;;;;;;;2.05;0.90;;;11.10;99.80;;;;;;5025413;28;20022;-93
2023/10/28 06:24:49;;;;;;;1.92;0.90;;;11.20;99.80;;;;;;5036970;28;20030;-92
2023/10/28 06:27:15;;;;;;;1.38;0.88;;;11.10;99.70;;;;;;5037483;28;20053;-92
2023/10/28 06:29:40;;;;;;;2.13;0.68;;;11.20;99.20;;;;;;5023942;28;20036;-94
2023/10/28 06:32:07;;;;;;;1.95;1.27;;;11.30;99.60;;;;;;5040937;28;20049;-92
2023/10/28 06:34:32;;;;;;;2.53;1.00;;;11.30;97.90;;;;;;5042016;28;20022;-92
2023/10/28 06:36:58;;;;;;;4.00;1.13;;;11.30;97.00;;;;;;5042506;28;20155;-94
2023/10/28 06:39:23;;;;;;;2.10;0.85;;;11.40;96.80;;;;;;5041308;28;20029;-93
2023/10/28 06:41:50;;;;;;;3.90;0.93;;;11.40;97.30;;;;;;5037034;28;20029;-94
2023/10/28 06:44:18;;;;;;;1.92;0.98;;;11.40;96.60;;;;;;5045205;28;20094;-93
2023/10/28 06:46:44;;;;;;;3.38;1.30;;;11.40;96.40;;;;;;5041615;28;20026;-93
2023/10/28 06:49:10;;;;;;;3.40;0.98;;;11.50;96.50;;;;;;5033511;28;20046;-93
2023/10/28 06:51:36;;;;;;;2.75;1.02;;;11.50;97.30;;;;;;5028044;28;20022;-92
2023/10/28 06:54:02;;;;;;;2.53;1.25;;;11.50;98.00;;;;;;5026928;28;20052;-94
2023/10/28 06:56:28;;;;;;;2.60;1.67;;;11.40;99.20;;;;;;5038138;28;20029;-93
2023/10/28 06:58:54;;;;;;;2.67;1.52;;;11.40;99.40;;;;;;5024972;28;20099;-92
2023/10/28 07:01:20;;;;;;;1.30;1.08;;;11.40;97.70;;;;;;5031416;28;20026;-93
2023/10/28 07:03:47;;;;;;;4.88;1.33;;;11.40;98.40;;;;;;5050364;28;20447;-92
2023/10/28 07:06:16;;;;;;;3.72;0.90;;;11.40;97.70;;;;;;5035330;28;20024;-93
2023/10/28 07:08:42;;;;;;;4.50;1.95;;;11.50;97.10;;;;;;5042060;28;20118;-93
2023/10/28 07:11:08;;;;;;;3.40;1.20;;;11.50;98.40;;;;;;5039797;28;20386;-94
2023/10/28 07:13:33;;;;;;;4.30;1.50;;;11.50;97.30;;;;;;5030834;28;20089;-92
2023/10/28 07:16:06;;;;;;;5.10;1.52;;;11.50;98.00;;;;;;5054843;28;20018;-94
2023/10/28 07:18:32;;;;;;;3.95;1.20;;;11.60;97.10;;;;;;5031669;28;20041;-94
2023/10/28 07:20:58;;;;;;;4.95;1.67;;;11.60;96.60;;;;;;5039699;28;20360;-93
2023/10/28 07:23:26;;;;;;;4.00;1.67;;;11.70;96.80;;;;;;5039078;28;20476;-94
2023/10/28 07:25:53;;;;;;;5.55;2.15;;;11.70;97.60;;;;;;5040345;28;20029;-92
2023/10/28 07:28:19;;;;;;;5.47;3.25;;;11.80;94.70;;;;;;5037941;28;20048;-92
2023/10/28 07:30:50;;;;;;;8.00;3.00;;;11.80;94.90;;;;;;5033574;28;20510;-93
2023/10/28 07:33:20;;;;;;;5.30;2.67;;;11.90;95.90;;;;;;5027948;28;20036;-94
2023/10/28 07:35:50;;;;;;;6.55;2.38;;;11.90;94.20;;;;;;5039236;28;20177;-92
2023/10/28 07:38:17;;;;;;;5.28;2.13;;;11.90;94.50;;;;;;5038842;28;20032;-92
2023/10/28 07:40:46;;;;;;;5.35;1.70;;;11.80;95.80;;;;;;5038580;28;20486;-93
2023/10/28 07:43:13;;;;;;;4.95;1.67;;;11.80;96.50;;;;;;5038807;28;20025;-93
2023/10/28 07:45:40;;;;;;;2.95;1.10;;;11.80;95.50;;;;;;5038168;28;20013;-93
2023/10/28 07:48:09;;;;;;;3.42;1.13;;;11.80;95.00;;;;;;5037928;28;20025;-95
2023/10/28 07:50:38;;;;;;;2.63;1.80;;;11.90;96.20;;;;;;5035919;28;20028;-92
2023/10/28 07:53:04;;;;;;;1.55;0.80;;;12.00;95.70;;;;;;5033902;28;20580;-93
2023/10/28 07:55:30;;;;;;;3.38;1.15;;;12.10;94.60;;;;;;5053914;28;20025;-94
2023/10/28 07:57:56;;;;;;;3.50;1.58;;;12.10;95.00;;;;;;5037158;28;20066;-93
2023/10/28 08:00:23;;;;;;;2.67;0.80;;;12.10;95.80;;;;;;5035351;28;20025;-93
2023/10/28 08:02:49;;;;;;;4.78;0.90;;;12.10;95.20;;;;;;5031530;28;20376;-92
2023/10/28 08:05:15;;;;;;;2.65;0.93;;;12.10;95.90;;;;;;5039531;28;20386;-94
2023/10/28 08:07:41;;;;;;;2.58;1.17;;;12.10;95.10;;;;;;5039688;28;20017;-93
2023/10/28 08:10:08;;;;;;;4.40;1.15;;;12.20;95.60;;;;;;5054397;28;20443;-93
2023/10/28 08:12:34;;;;;;;3.22;1.30;;;12.30;95.20;;;;;;5053715;28;20029;-92
2023/10/28 08:15:03;;;;;;;5.70;1.30;;;12.40;93.80;;;;;;5053382;28;20048;-92
2023/10/28 08:17:31;;;;;;;5.38;1.25;;;12.40;93.60;;;;;;5054514;28;20057;-92
2023/10/28 08:19:56;;;;;;;3.75;0.80;;;12.40;93.90;;;;;;5037672;28;20095;-92
2023/10/28 08:22:24;;;;;;;3.80;0.95;;;12.50;93.80;;;;;;5037655;28;20018;-92
2023/10/28 08:24:50;;;;;;;4.43;1.05;;;12.50;94.80;;;;;;5039789;28;20093;-93
2023/10/28 08:27:15;;;;;;;2.65;1.10;;;12.40;93.50;;;;;;5038661;28;20045;-93
2023/10/28 08:29:43;;;;;;;4.40;1.05;;;12.50;92.70;;;;;;5037472;28;20145;-91
2023/10/28 08:32:09;;;;;;;3.53;0.90;;;12.70;93.30;;;;;;5022530;28;20022;-92
2023/10/28 08:34:35;;;;;;;2.95;1.10;;;12.70;93.00;;;;;;5036001;28;20040;-94
2023/10/28 08:37:01;;;;;;;3.40;1.10;;;12.70;92.10;;;;;;5037964;28;20399;-90
2023/10/28 08:39:28;;;;;;;5.30;0.90;;;12.90;92.30;;;;;;5039380;28;20028;-93
2023/10/28 08:41:54;;;;;;;2.60;0.90;;;13.00;91.80;;;;;;5038348;28;20032;-92
2023/10/28 08:44:27;;;;;;;3.03;0.98;;;13.10;90.50;;;;;;5053694;28;20049;-91
2023/10/28 08:46:53;;;;;;;3.78;0.98;;;13.20;89.40;;;;;;5045024;28;20455;-92
2023/10/28 08:49:21;;;;;;;1.23;0.60;;;13.30;87.50;;;;;;5034754;28;20083;-92
2023/10/28 08:51:53;;;;;;;3.42;0.63;;;13.30;86.90;;;;;;5035439;28;20047;-93
2023/10/28 08:54:19;;;;;;;3.03;0.93;;;13.30;86.90;;;;;;5041566;28;20552;-92
2023/10/28 08:56:46;;;;;;;3.13;0.93;;;13.40;86.40;;;;;;5040391;28;20033;-93
2023/10/28 08:59:12;;;;;;;;;;;13.30;87.60;;;;;;5056996;28;20026;-92
2023/10/28 09:01:39;;;;;;;2.95;1.05;;;13.30;88.00;;;;;;5041217;28;19937;-93
2023/10/28 09:04:05;;;;;;;3.22;1.25;;;13.20;87.20;;;;;;5026272;28;20030;-93
2023/10/28 09:06:31;;;;;;;1.92;1.05;;;13.30;86.70;;;;;;5032344;28;20385;-94
2023/10/28 09:08:57;;;;;;;5.07;1.45;;;13.30;89.60;;;;;;5036166;28;20025;-93
2023/10/28 09:11:24;;;;;;;4.60;0.85;;;13.30;88.70;;;;;;5042403;28;20506;-93
2023/10/28 09:13:50;;;;;;;5.75;0.70;;;13.30;88.40;;;;;;5041347;28;20099;-94
2023/10/28 09:16:15;;;;;;;3.92;0.75;;;13.30;88.40;;;;;;5042133;28;20443;-91
2023/10/28 09:18:43;;;;;;;4.38;1.13;;;13.40;89.50;;;;;;5037349;28;20026;-94
2023/10/28 09:21:11;;;;;;;2.90;0.90;;;13.50;90.10;;;;;;5030053;28;20404;-94
2023/10/28 09:23:38;;;;;;;3.22;0.93;;;13.60;89.50;;;;;;5034790;28;20120;-92
2023/10/28 09:26:05;;;;;;;1.90;0.60;;;13.60;88.90;;;;;;5035969;28;20081;-91
2023/10/28 09:28:31;;;;;;;2.42;1.33;;;13.60;88.70;;;;;;5025796;28;20022;-93
2023/10/28 09:30:59;;;;;;;5.97;1.27;;;13.50;89.10;;;;;;5045388;28;20562;-95
2023/10/28 09:33:28;;;;;;;3.95;1.00;;;13.50;90.40;;;;;;5052124;28;20038;-93
2023/10/28 09:35:56;;;;;;;3.15;1.08;;;13.50;89.20;;;;;;5069333;28;20097;-94
2023/10/28 09:38:25;;;;;;;6.13;1.00;;;13.50;90.00;;;;;;5063976;28;20028;-92
2023/10/28 09:41:01;;;;;;;4.60;0.85;;;13.50;90.10;;;;;;5060112;28;20037;-93
2023/10/28 09:43:28;;;;;;;3.47;1.13;;;13.60;88.80;;;;;;5046682;28;20018;-92
2023/10/28 09:45:54;;;;;;;3.13;1.00;;;13.60;87.70;;;;;;5047696;28;20037;-92
2023/10/28 09:48:20;;;;;;;1.77;0.80;;;13.70;86.70;;;;;;5030188;28;20018;-94
2023/10/28 09:50:50;;;;;;;1.75;0.90;;;13.80;87.20;;;;;;5044761;28;20487;-93
2023/10/28 09:53:27;;;;;;;3.05;1.20;;;13.80;85.70;;;;;;5042885;28;20079;-94
2023/10/28 09:55:55;;;;;;;4.45;1.08;;;14.00;87.50;;;;;;5044498;28;20109;-93
2023/10/28 09:58:33;;;;;;;3.88;1.92;;;14.10;87.50;;;;;;5043141;28;20052;-92
2023/10/28 10:01:27;;;;;;;4.80;1.10;;;14.20;85.10;;;;;;5041665;28;20063;-92
2023/10/28 10:04:28;;;;;;;5.95;1.10;;;14.20;83.90;;;;;;5042019;28;20024;-94
2023/10/28 10:06:54;;;;;;;2.05;1.73;;;14.30;85.20;;;;;;5036111;28;20083;-91
2023/10/28 10:09:20;;;;;;;3.13;1.13;;;14.40;84.10;;;;;;5042239;28;20026;-93
2023/10/28 10:11:49;;;;;;;4.75;1.15;;;14.40;83.70;;;;;;5037908;28;20374;-93
2023/10/28 10:14:17;;;;;;;4.55;1.05;;;14.50;83.30;;;;;;5022101;28;20038;-94
2023/10/28 10:17:05;;;;;;;3.90;1.13;;;14.50;82.30;;;;;;5044875;28;20080;-93
2023/10/28 10:19:34;;;;;;;5.95;1.02;;;14.50;82.10;;;;;;5037205;28;20034;-94
2023/10/28 10:22:06;;;;;;;2.85;1.25;;;14.50;82.70;;;;;;5036411;28;20021;-92
2023/10/28 10:24:32;;;;;;;4.15;1.73;;;14.60;83.50;;;;;;5036432;28;20025;-93
2023/10/28 10:27:00;;;;;;;2.42;0.70;;;14.60;80.50;;;;;;5040487;28;20026;-90
2023/10/28 10:29:30;;;;;;;;;;;14.50;82.60;;;;;;5042801;28;20021;-93
2023/10/28 10:31:56;;;;;;;5.70;1.02;;;14.50;80.40;;;;;;5042990;28;19945;-93
2023/10/28 10:34:33;;;;;;;3.33;0.65;;;14.50;81.50;;;;;;5043283;28;20060;-93
2023/10/28 10:37:00;;;;;;;3.53;1.02;;;14.50;80.40;;;;;;5050022;28;20029;-93
2023/10/28 10:39:26;;;;;;;5.50;0.80;;;14.40;82.00;;;;;;5035565;28;20120;-94
2023/10/28 10:41:56;;;;;;;3.38;1.08;;;14.40;81.00;;;;;;5058320;28;20025;-93
2023/10/28 10:44:36;;;;;;;3.90;0.95;;;14.40;80.20;;;;;;5026033;28;20079;-92
2023/10/28 10:47:10;;;;;;;3.08;1.63;;;14.30;81.90;;;;;;5037655;28;20074;-92
2023/10/28 10:49:40;;;;;;;7.38;1.10;;;14.30;80.40;;;;;;5042225;28;20464;-93
2023/10/28 10:52:08;;;;;;;5.53;1.08;;;14.40;79.90;;;;;;5041928;28;20033;-91
2023/10/28 10:54:39;;;;;;;4.05;1.50;;;14.40;79.20;;;;;;5057102;28;20048;-93
2023/10/28 10:57:06;;;;;;;6.55;1.95;;;14.40;81.10;;;;;;5041410;28;20265;-92
2023/10/28 10:59:40;;;;;;;5.60;1.67;;;14.50;79.50;;;;;;5039297;28;20032;-94
2023/10/28 11:02:07;;;;;;;4.57;0.70;;;14.50;77.50;;;;;;5038793;28;20029;-94
2023/10/28 11:04:34;;;;;;;6.53;2.08;;;14.50;80.40;;;;;;5041295;28;20032;-93
2023/10/28 11:07:02;;;;;;;3.05;0.70;;;14.50;80.70;;;;;;5041917;28;20056;-92
2023/10/28 11:09:28;;;;;;;4.43;0.88;;;14.60;78.60;;;;;;5036703;28;20034;-93
2023/10/28 11:11:54;;;;;;;4.60;1.15;;;14.60;79.80;;;;;;5041033;28;20093;-92
2023/10/28 11:14:20;;;;;;;6.30;0.90;;;14.60;79.30;;;;;;5024713;28;20117;-93
2023/10/28 11:16:46;;;;;;;6.00;1.13;;;14.60;78.40;;;;;;5025670;28;20076;-93
2023/10/28 11:19:12;;;;;;;5.03;1.27;;;14.60;77.50;;;;;;5042013;28;20025;-93
2023/10/28 11:21:40;;;;;;;2.70;1.50;;;14.70;79.20;;;;;;5042510;28;20085;-93
2023/10/28 11:24:07;;;;;;;7.78;1.35;;;14.70;77.60;;;;;;5058517;28;20025;-94
2023/10/28 11:26:34;;;;;;;5.15;1.50;;;14.80;79.20;;;;;;5054972;28;20026;-93
2023/10/28 11:29:00;;;;;;;3.53;0.98;;;14.70;79.30;;;;;;5038463;28;20103;-93
2023/10/28 11:31:30;;;;;;;4.55;0.80;;;14.70;78.00;;;;;;5033798;28;20431;-92
2023/10/28 11:34:00;;;;;;;2.05;1.33;;;14.70;79.80;;;;;;5040701;28;20030;-91
2023/10/28 11:36:26;;;;;;;3.40;1.63;;;14.40;82.30;;;;;;5024567;28;20101;-89
2023/10/28 11:38:54;;;;;;;4.95;1.02;;;14.30;85.30;;;;;;5036816;28;20022;-90
2023/10/28 11:41:21;;;;;;;7.05;2.33;;;14.20;86.70;;;;;;5030206;28;20030;-92
2023/10/28 11:43:49;;;;;;;;;;;14.00;88.60;;;;;;5037810;28;20607;-92
2023/10/28 11:46:14;;;;;;;;;;;13.90;90.00;;;;;;5028212;28;19940;-90
2023/10/28 11:48:41;;;;;;;3.67;1.42;;;13.80;89.80;;;;;;5043762;28;19905;-93
2023/10/28 11:51:08;;;;;;;3.15;0.90;;;13.80;90.10;;;;;;5048815;28;20021;-90
2023/10/28 11:53:34;;;;;;;5.22;1.85;;;13.70;91.00;;;;;;5037430;28;20028;-90
2023/10/28 11:55:59;;;;;;;4.32;1.48;;;13.70;93.50;;;;;;5027998;28;20030;-91
2023/10/28 11:58:26;;;;;;;5.40;1.63;;;13.50;92.80;;;;;;5030122;28;20053;-94
2023/10/28 12:00:55;;;;;;;5.15;1.38;;;13.40;96.00;;;;;;5030885;28;20049;-96
2023/10/28 12:03:25;;;;;;;4.85;1.50;;;13.20;97.30;;;;;;5029419;28;20032;-93
2023/10/28 12:05:50;;;;;;;4.75;1.85;;;13.00;99.00;;;;;;5044821;28;20098;-94
2023/10/28 12:08:17;;;;;;;5.25;1.40;;;12.80;99.90;;;;;;5030559;28;20021;-93
2023/10/28 12:10:43;;;;;;;7.25;1.83;;;12.70;99.90;;;;;;5040807;28;20025;-94
2023/10/28 12:13:11;;;;;;;4.72;1.13;;;12.50;99.90;;;;;;5028674;28;20033;-95
2023/10/28 12:15:37;;;;;;;5.95;1.85;;;12.40;99.90;;;;;;5030012;28;20044;-92
2023/10/28 12:18:02;;;;;;;4.57;1.50;;;12.40;99.90;;;;;;5043123;28;20961;-93
2023/10/28 12:20:34;;;;;;;6.80;1.35;;;12.30;99.90;;;;;;5046302;28;20109;-91
2023/10/28 12:23:00;;;;;;;6.13;1.65;;;12.20;99.90;;;;;;5041157;28;20484;-91
2023/10/28 12:25:32;;;;;;;4.05;1.38;;;12.20;99.90;;;;;;5029446;28;20069;-91
2023/10/28 12:27:57;;;;;;;5.47;3.85;;;12.20;99.90;;;;;;5041149;28;20410;-89
2023/10/28 12:30:23;;;;;;;6.97;3.33;;;12.20;99.90;;;;;;5040938;28;20026;-95
2023/10/28 12:32:50;;;;;;;11.73;4.68;;;12.30;99.90;;;;;;5037441;28;20149;-94
2023/10/28 12:35:17;;;;;;;17.92;13.70;;;12.40;99.90;;;;;;5052451;28;20017;-93
2023/10/28 12:37:43;;;;;;;9.93;6.00;;;12.40;99.90;;;;;;5058918;28;20033;-94
2023/10/28 12:40:09;;;;;;;7.70;2.97;;;12.40;99.90;;;;;;5039347;28;20089;-96
2023/10/28 12:42:37;;;;;;;7.93;2.30;;;12.40;99.90;;;;;;5037500;28;20121;-95
2023/10/28 12:45:09;;;;;;;7.75;2.45;;;12.50;99.90;;;;;;5035280;28;20297;-96
2023/10/28 12:47:50;;;;;;;9.43;2.83;;;12.50;99.90;;;;;;5051092;28;20516;-96